Time;durP1;ratioP1;P1;durP2;ratioP2;P2;SDS_P1;SDS_P2;PMS_P1;PMS_P2;Temp;Humidity;BMP_temperature;BMP_pressure;BME280_temperature;BME280_humidity;BME280_pressure;Samples;Min_cycle;Max_cycle;Signal;HPM_P1;HPM_P2
2022/05/08 00:00:11;;;;;;;;;;;13.20;99.90;;;;;;4917986;29;19938;-87
2022/05/08 00:02:42;;;;;;;;;;;13.20;99.90;;;;;;4918206;29;19931;-86
2022/05/08 00:05:14;;;;;;;;;;;13.00;99.90;;;;;;4902221;29;20278;-86
2022/05/08 00:07:41;;;;;;;;;;;12.70;99.90;;;;;;4902230;29;20391;-86
2022/05/08 00:10:09;;;;;;;;;;;12.90;99.90;;;;;;4898456;29;19934;-86
2022/05/08 00:12:37;;;;;;;;;;;12.80;99.90;;;;;;4909872;29;19927;-87
2022/05/08 00:15:14;;;;;;;;;;;12.70;99.90;;;;;;4899569;29;19927;-86
2022/05/08 00:17:41;;;;;;;;;;;12.70;99.90;;;;;;4904997;29;19927;-87
2022/05/08 00:20:10;;;;;;;;;;;12.60;99.90;;;;;;4896961;29;19942;-86
2022/05/08 00:22:50;;;;;;;;;;;12.60;99.90;;;;;;4913968;29;19931;-86
2022/05/08 00:25:19;;;;;;;;;;;12.60;99.90;;;;;;4928133;29;19927;-86
2022/05/08 00:27:47;;;;;;;;;;;12.60;99.90;;;;;;4902692;29;19934;-86
2022/05/08 00:30:15;;;;;;;;;;;12.60;99.90;;;;;;4907971;29;19927;-86
2022/05/08 00:32:45;;;;;;;;;;;12.60;99.90;;;;;;4913935;29;19938;-87
2022/05/08 00:35:13;;;;;;;;;;;12.60;99.90;;;;;;4898089;29;20427;-86
2022/05/08 00:37:40;;;;;;;;;;;13.00;99.90;;;;;;4900130;29;20398;-87
2022/05/08 00:40:12;;;;;;;;;;;12.70;99.90;;;;;;4900338;29;19934;-87
2022/05/08 00:42:41;;;;;;;;;;;12.70;99.90;;;;;;4908928;29;19930;-87
2022/05/08 00:45:09;;;;;;;;;;;11.50;99.90;;;;;;4916189;29;19930;-87
2022/05/08 00:47:38;;;;;;;;;;;12.70;99.90;;;;;;4901482;29;19934;-86
2022/05/08 00:50:08;;;;;;;;;;;12.70;99.90;;;;;;4902309;29;20374;-86
2022/05/08 00:52:36;;;;;;;;;;;12.60;99.90;;;;;;4245634;29;10000562;-86
2022/05/08 00:55:04;;;;;;;;;;;12.50;99.90;;;;;;4917101;29;19931;-86
2022/05/08 00:57:32;;;;;;;;;;;12.60;99.90;;;;;;4916651;29;19934;-86
2022/05/08 01:00:08;;;;;;;;;;;13.10;99.90;;;;;;4934242;29;20434;-86
2022/05/08 01:02:39;;;;;;;;;;;12.60;99.90;;;;;;4918366;29;19930;-87
2022/05/08 01:05:08;;;;;;;;;;;12.60;99.90;;;;;;4917352;29;19938;-86
2022/05/08 01:07:37;;;;;;;;;;;12.60;99.90;;;;;;4917583;29;19931;-87
2022/05/08 01:10:05;;;;;;;;;;;12.80;99.90;;;;;;4934195;29;19938;-86
2022/05/08 01:12:33;;;;;;;;;;;12.50;99.90;;;;;;4906161;29;19950;-87
2022/05/08 01:15:11;;;;;;;;;;;12.40;99.90;;;;;;4916939;29;19943;-86
2022/05/08 01:17:46;;;;;;;;;;;12.40;99.90;;;;;;4936624;29;19926;-86
2022/05/08 01:20:15;;;;;;;;;;;12.40;99.90;;;;;;4919970;29;19930;-87
2022/05/08 01:22:43;;;;;;;;;;;12.30;99.90;;;;;;4952511;29;19933;-86
2022/05/08 01:25:13;;;;;;;;;;;12.30;99.90;;;;;;4928829;29;19937;-87
2022/05/08 01:27:42;;;;;;;;;;;12.30;99.90;;;;;;4933847;29;19927;-86
2022/05/08 01:30:10;;;;;;;;;;;12.30;99.90;;;;;;4933188;29;19927;-87
2022/05/08 01:32:38;;;;;;;;;;;12.20;99.90;;;;;;4909436;29;19934;-87
2022/05/08 01:35:29;;;;;;;;;;;12.20;99.90;;;;;;4914240;29;19935;-87
2022/05/08 01:37:58;;;;;;;;;;;12.10;99.90;;;;;;4911551;29;19930;-86
2022/05/08 01:40:36;;;;;;;;;;;12.10;99.90;;;;;;4932590;29;19943;-86
2022/05/08 01:43:04;;;;;;;;;;;12.10;99.90;;;;;;4933780;29;19942;-87
2022/05/08 01:45:33;;;;;;;;;;;12.10;99.90;;;;;;4895091;29;19939;-86
2022/05/08 01:50:53;;;;;;;;;;;12.10;99.90;;;;;;4898978;29;19934;-87
2022/05/08 01:53:35;;;;;;;;;;;12.20;99.90;;;;;;4900248;29;19927;-87
2022/05/08 01:56:06;;;;;;;;;;;12.60;99.90;;;;;;4911559;29;19934;-87
2022/05/08 01:58:47;;;;;;;;;;;12.20;99.90;;;;;;4910825;29;19938;-86
2022/05/08 02:01:15;;;;;;;;;;;12.20;99.90;;;;;;4914897;29;19934;-87
2022/05/08 02:03:47;;;;;;;;;;;12.10;99.90;;;;;;4885135;29;19935;-86
2022/05/08 02:06:15;;;;;;;;;;;12.30;99.90;;;;;;4899342;29;19931;-86
2022/05/08 02:08:47;;;;;;;;;;;12.20;99.90;;;;;;4885158;29;19927;-88
2022/05/08 02:11:25;;;;;;;;;;;12.10;99.90;;;;;;4912935;28;19930;-87
2022/05/08 02:13:59;;;;;;;;;;;12.10;99.90;;;;;;4957055;29;19931;-86
2022/05/08 02:16:27;;;;;;;;;;;12.10;99.90;;;;;;4925887;29;19927;-87
2022/05/08 02:18:55;;;;;;;;;;;12.10;99.90;;;;;;4932938;29;19935;-86
2022/05/08 02:21:25;;;;;;;;;;;12.10;99.90;;;;;;4903748;29;19927;-87
2022/05/08 02:23:52;;;;;;;;;;;12.00;99.90;;;;;;4914489;29;19950;-86
2022/05/08 02:26:21;;;;;;;;;;;12.10;99.90;;;;;;4920587;29;19931;-87
2022/05/08 02:28:51;;;;;;;;;;;12.10;99.90;;;;;;4917610;29;19927;-86
2022/05/08 02:31:22;;;;;;;;;;;12.00;99.90;;;;;;4937056;29;19943;-86
2022/05/08 02:33:50;;;;;;;;;;;11.90;99.90;;;;;;4920263;29;19934;-86
2022/05/08 02:36:23;;;;;;;;;;;11.90;99.90;;;;;;4917806;29;20164;-87
2022/05/08 02:38:58;;;;;;;;;;;11.80;99.90;;;;;;4933894;29;19938;-86
2022/05/08 02:41:27;;;;;;;;;;;11.80;99.90;;;;;;4904781;29;19938;-87
2022/05/08 02:44:00;;;;;;;;;;;11.70;99.90;;;;;;4910932;29;19930;-86
2022/05/08 02:46:28;;;;;;;;;;;11.90;99.90;;;;;;4913273;29;19927;-87
2022/05/08 02:48:55;;;;;;;;;;;11.70;99.90;;;;;;4931066;29;20375;-87
2022/05/08 02:51:23;;;;;;;;;;;11.70;99.90;;;;;;4884954;29;19938;-86
2022/05/08 02:53:51;;;;;;;;;;;11.60;99.90;;;;;;4570881;29;10000395;-86
2022/05/08 02:59:10;;;;;;;;;;;11.50;99.90;;;;;;4932209;29;19931;-86
2022/05/08 03:01:38;;;;;;;;;;;11.50;99.90;;;;;;4886444;29;19927;-86
2022/05/08 03:04:12;;;;;;;;;;;11.50;99.90;;;;;;4908373;29;19941;-86
2022/05/08 03:06:40;;;;;;;;;;;11.40;99.90;;;;;;4920651;29;19931;-86
2022/05/08 03:09:08;;;;;;;;;;;11.40;99.90;;;;;;4917703;29;19934;-86
2022/05/08 03:11:36;;;;;;;;;;;11.40;99.90;;;;;;4926693;29;19938;-86
2022/05/08 03:14:05;;;;;;;;;;;11.40;99.90;;;;;;4905134;29;19926;-86
2022/05/08 03:16:33;;;;;;;;;;;11.40;99.90;;;;;;4920673;29;19927;-86
2022/05/08 03:19:02;;;;;;;;;;;11.40;99.90;;;;;;4902504;29;19938;-86
2022/05/08 03:21:30;;;;;;;;;;;11.50;99.90;;;;;;4901318;29;19934;-87
2022/05/08 03:23:58;;;;;;;;;;;11.40;99.90;;;;;;4869748;29;19934;-87
2022/05/08 03:26:28;;;;;;;;;;;11.40;99.90;;;;;;4901485;29;19938;-87
2022/05/08 03:29:00;;;;;;;;;;;11.40;99.90;;;;;;4942937;29;19927;-86
2022/05/08 03:31:28;;;;;;;;;;;11.50;99.90;;;;;;4901585;29;19931;-86
2022/05/08 03:33:56;;;;;;;;;;;11.50;99.90;;;;;;4887326;29;19926;-87
2022/05/08 03:36:23;;;;;;;;;;;11.40;99.90;;;;;;4934862;29;19938;-86
2022/05/08 03:38:52;;;;;;;;;;;11.50;99.90;;;;;;4895409;29;20386;-87
2022/05/08 03:41:20;;;;;;;;;;;11.50;99.90;;;;;;4934691;29;19927;-87
2022/05/08 03:43:50;;;;;;;;;;;10.90;99.90;;;;;;4934869;29;19930;-86
2022/05/08 03:46:19;;;;;;;;;;;11.50;99.90;;;;;;4941378;29;19946;-86
2022/05/08 03:48:47;;;;;;;;;;;11.50;99.90;;;;;;4934007;29;19945;-85
2022/05/08 03:51:16;;;;;;;;;;;11.80;99.90;;;;;;4933670;29;19926;-86
2022/05/08 03:53:44;;;;;;;;;;;11.50;99.90;;;;;;4936989;29;19927;-86
2022/05/08 03:56:15;;;;;;;;;;;10.30;99.90;;;;;;4922225;29;19930;-87
2022/05/08 03:58:46;;;;;;;;;;;11.50;99.90;;;;;;4922113;29;20566;-87
2022/05/08 04:01:17;;;;;;;;;;;11.50;99.90;;;;;;4891353;29;19931;-87
2022/05/08 04:03:45;;;;;;;;;;;11.40;99.90;;;;;;4928032;29;19931;-86
2022/05/08 04:06:13;;;;;;;;;;;11.50;99.90;;;;;;4888085;29;19927;-87
2022/05/08 04:08:41;;;;;;;;;;;11.40;99.90;;;;;;4910021;29;19934;-87
2022/05/08 04:11:11;;;;;;;;;;;11.40;99.90;;;;;;4911218;29;19937;-88
2022/05/08 04:13:39;;;;;;;;;;;11.40;99.90;;;;;;4928324;29;19931;-85
2022/05/08 04:19:18;;;;;;;;;;;11.30;99.90;;;;;;4910121;29;19931;-86
2022/05/08 04:21:46;;;;;;;;;;;11.40;99.90;;;;;;4925641;29;19931;-86
2022/05/08 04:24:17;;;;;;;;;;;11.40;99.90;;;;;;4921896;29;19942;-88
2022/05/08 04:26:46;;;;;;;;;;;11.40;99.90;;;;;;4902021;29;19927;-87
2022/05/08 04:29:13;;;;;;;;;;;11.30;99.90;;;;;;4904955;29;19942;-87
2022/05/08 04:31:41;;;;;;;;;;;11.40;99.90;;;;;;4890284;29;20306;-87
2022/05/08 04:34:12;;;;;;;;;;;11.10;99.90;;;;;;4922460;29;19930;-86
2022/05/08 04:36:58;;;;;;;;;;;11.20;99.90;;;;;;4935853;29;19926;-87
2022/05/08 04:39:27;;;;;;;;;;;11.30;99.90;;;;;;4904112;29;19926;-87
2022/05/08 04:41:55;;;;;;;;;;;11.10;99.90;;;;;;4927999;29;19931;-87
2022/05/08 04:44:22;;;;;;;;;;;11.50;99.90;;;;;;4934793;29;19934;-86
2022/05/08 04:46:50;;;;;;;;;;;11.40;99.90;;;;;;4938151;29;19934;-86
2022/05/08 04:49:17;;;;;;;;;;;11.20;99.90;;;;;;4937226;29;19949;-87
2022/05/08 04:52:04;;;;;;;;;;;11.30;99.90;;;;;;4886304;29;19927;-86
2022/05/08 04:54:47;;;;;;;;;;;11.40;99.90;;;;;;4897404;29;19931;-86
2022/05/08 04:57:15;;;;;;;;;;;10.20;99.90;;;;;;4936058;29;20306;-87
2022/05/08 04:59:43;;;;;;;;;;;11.40;99.90;;;;;;4950633;29;19933;-86
2022/05/08 05:02:35;;;;;;;;;;;11.40;99.90;;;;;;4900024;29;19931;-86
2022/05/08 05:05:07;;;;;;;;;;;11.50;99.90;;;;;;4886830;29;20331;-87
2022/05/08 05:07:34;;;;;;;;;;;11.50;99.90;;;;;;4914490;29;20375;-86
2022/05/08 05:10:10;;;;;;;;;;;11.50;99.90;;;;;;4934440;29;19935;-87
2022/05/08 05:12:39;;;;;;;;;;;11.50;99.90;;;;;;4934253;29;19927;-87
2022/05/08 05:15:33;;;;;;;;;;;11.50;99.90;;;;;;4922743;29;20378;-86
2022/05/08 05:18:28;;;;;;;;;;;10.60;99.90;;;;;;4927569;29;20374;-86
2022/05/08 05:20:56;;;;;;;;;;;11.50;99.90;;;;;;4927743;29;19926;-86
2022/05/08 05:26:45;;;;;;;;;;;11.40;99.90;;;;;;4944019;29;19933;-87
2022/05/08 05:29:17;;;;;;;;;;;11.40;99.90;;;;;;4910527;29;19933;-87
2022/05/08 05:35:26;;;;;;;;;;;12.80;99.90;;;;;;4943016;29;19927;-87
2022/05/08 05:41:12;;;;;;;;;;;11.40;99.90;;;;;;4929499;29;19937;-86
2022/05/08 05:43:39;;;;;;;;;;;11.40;99.90;;;;;;4940756;29;19941;-87
2022/05/08 05:49:01;;;;;;;;;;;10.20;99.90;;;;;;4943212;29;19942;-88
2022/05/08 05:51:29;;;;;;;;;;;11.20;99.90;;;;;;4924045;29;19926;-86
2022/05/08 05:54:32;;;;;;;;;;;11.10;99.90;;;;;;4941099;29;19931;-86
2022/05/08 05:57:29;;;;;;;;;;;11.10;99.90;;;;;;4938244;29;19927;-87
2022/05/08 05:59:58;;;;;;;;;;;11.00;99.90;;;;;;4937814;29;19937;-87
2022/05/08 06:02:27;;;;;;;;;;;11.00;99.90;;;;;;4942726;29;19915;-87
2022/05/08 06:05:20;;;;;;;;;;;11.00;99.90;;;;;;4951259;29;19930;-87
2022/05/08 06:11:10;;;;;;;;;;;11.10;99.90;;;;;;4929310;28;20043;-87
2022/05/08 06:13:38;;;;;;;;;;;11.20;99.90;;;;;;4962480;29;19915;-87
2022/05/08 06:16:06;;;;;;;;;;;11.10;99.90;;;;;;4969737;28;19926;-86
2022/05/08 06:18:34;;;;;;;;;;;11.10;99.90;;;;;;4942900;29;19921;-87
2022/05/08 06:21:01;;;;;;;;;;;11.10;99.90;;;;;;4920835;29;20367;-87
2022/05/08 06:23:30;;;;;;;;;;;11.10;99.90;;;;;;4919008;29;19931;-87
2022/05/08 06:26:02;;;;;;;;;;;11.10;99.90;;;;;;4918070;29;19931;-86
2022/05/08 06:28:31;;;;;;;;;;;11.10;99.90;;;;;;4926481;29;19911;-87
2022/05/08 06:30:58;;;;;;;;;;;11.10;99.90;;;;;;4943310;29;19926;-86
2022/05/08 06:33:26;;;;;;;;;;;11.20;99.90;;;;;;4958894;29;19931;-86
2022/05/08 06:35:59;;;;;;;;;;;11.20;99.90;;;;;;4911879;29;19926;-86
2022/05/08 06:38:29;;;;;;;;;;;11.30;99.90;;;;;;4942528;29;19915;-86
2022/05/08 06:40:57;;;;;;;;;;;11.40;99.90;;;;;;4942091;29;19941;-87
2022/05/08 06:43:24;;;;;;;;;;;11.70;99.90;;;;;;4936997;29;19941;-87
2022/05/08 06:45:53;;;;;;;;;;;11.50;99.90;;;;;;4921184;29;19938;-86
2022/05/08 06:48:52;;;;;;;;;;;11.50;99.90;;;;;;4930795;29;19930;-86
2022/05/08 06:51:20;;;;;;;;;;;11.40;99.90;;;;;;4942797;29;19931;-87
2022/05/08 06:53:48;;;;;;;;;;;11.50;99.90;;;;;;4953987;29;19927;-86
2022/05/08 06:56:17;;;;;;;;;;;11.50;99.90;;;;;;4909711;29;19933;-88
2022/05/08 07:01:38;;;;;;;;;;;11.60;99.90;;;;;;4941971;29;19927;-87
2022/05/08 07:04:43;;;;;;;;;;;11.80;99.90;;;;;;4899765;29;19927;-88
2022/05/08 07:07:14;;;;;;;;;;;11.70;99.90;;;;;;4948988;29;19931;-86
2022/05/08 07:09:42;;;;;;;;;;;11.70;99.90;;;;;;4919145;29;19938;-85
2022/05/08 07:12:11;;;;;;;;;;;9.80;99.90;;;;;;4924162;29;19926;-86
2022/05/08 07:14:42;;;;;;;;;;;12.20;99.90;;;;;;4930321;29;19926;-87
2022/05/08 07:17:18;;;;;;;;;;;12.00;99.90;;;;;;4928076;29;19931;-86
2022/05/08 07:19:50;;;;;;;;;;;12.00;99.90;;;;;;4918219;29;19931;-85
2022/05/08 07:22:19;;;;;;;;;;;12.10;99.90;;;;;;4948812;29;19937;-87
2022/05/08 07:24:48;;;;;;;;;;;12.10;99.90;;;;;;4916314;29;19937;-87
2022/05/08 07:27:16;;;;;;;;;;;12.10;99.90;;;;;;4927395;29;19938;-85
2022/05/08 07:29:44;;;;;;;;;;;12.10;99.90;;;;;;4946698;29;19927;-86
2022/05/08 07:32:12;;;;;;;;;;;12.10;99.90;;;;;;4913843;29;20248;-86
2022/05/08 07:37:30;;;;;;;;;;;12.10;99.90;;;;;;4945844;29;19933;-86
2022/05/08 07:39:59;;;;;;;;;;;12.20;99.90;;;;;;4928593;29;19926;-86
2022/05/08 07:42:27;;;;;;;;;;;12.20;99.60;;;;;;4946940;29;20012;-86
2022/05/08 07:44:55;;;;;;;;;;;12.20;99.80;;;;;;4942290;29;19934;-87
2022/05/08 07:47:27;;;;;;;;;;;12.40;99.70;;;;;;4946140;29;19926;-86
2022/05/08 07:49:58;;;;;;;;;;;12.20;99.90;;;;;;4930506;29;19958;-86
2022/05/08 07:52:38;;;;;;;;;;;12.20;99.90;;;;;;4910409;29;19930;-86
2022/05/08 07:55:11;;;;;;;;;;;12.20;99.40;;;;;;4917272;29;19927;-86
2022/05/08 07:57:42;;;;;;;;;;;12.30;99.70;;;;;;4934257;29;19950;-85
2022/05/08 08:00:11;;;;;;;;;;;12.30;99.40;;;;;;4930357;29;19938;-86
2022/05/08 08:02:48;;;;;;;;;;;12.40;99.70;;;;;;4944016;29;19930;-86
2022/05/08 08:05:23;;;;;;;;;;;12.40;99.70;;;;;;4918458;29;20279;-85
2022/05/08 08:07:52;;;;;;;;;;;12.50;99.30;;;;;;4938262;29;19931;-86
2022/05/08 08:10:23;;;;;;;;;;;12.90;99.70;;;;;;4946423;28;19921;-86
2022/05/08 08:12:50;;;;;;;;;;;12.60;99.20;;;;;;4927364;29;20719;-86
2022/05/08 08:15:21;;;;;;;;;;;12.60;99.40;;;;;;4917950;29;19935;-86
2022/05/08 08:17:48;;;;;;;;;;;12.70;99.00;;;;;;4914404;29;19927;-86
2022/05/08 08:20:19;;;;;;;;;;;12.80;99.10;;;;;;4934840;29;19937;-86
2022/05/08 08:22:48;;;;;;;;;;;12.80;99.00;;;;;;4948532;29;19961;-86
2022/05/08 08:25:16;;;;;;;;;;;12.90;99.20;;;;;;4934324;29;19961;-85
2022/05/08 08:27:45;;;;;;;;;;;13.20;99.40;;;;;;4924046;29;19931;-87
2022/05/08 08:30:14;;;;;;;;;;;13.00;98.90;;;;;;4909814;29;19941;-86
2022/05/08 08:32:43;;;;;;;;;;;13.10;98.80;;;;;;4957644;29;20119;-85
2022/05/08 08:35:22;;;;;;;;;;;13.10;98.70;;;;;;4916094;29;19931;-85
2022/05/08 08:37:50;;;;;;;;;;;13.20;98.90;;;;;;4899427;29;19930;-85
2022/05/08 08:40:18;;;;;;;;;;;13.30;98.30;;;;;;4933420;29;19937;-85
2022/05/08 08:42:49;;;;;;;;;;;13.40;98.50;;;;;;4929848;29;20374;-85
2022/05/08 08:48:52;;;;;;;;;;;13.50;98.30;;;;;;4942583;29;19950;-86
2022/05/08 08:51:29;;;;;;;;;;;13.50;98.40;;;;;;4873992;28;10000598;-85
2022/05/08 08:53:59;;;;;;;;;;;13.60;98.20;;;;;;4909640;29;19935;-85
2022/05/08 08:56:27;;;;;;;;;;;13.60;97.80;;;;;;4922242;29;19926;-85
2022/05/08 08:58:56;;;;;;;;;;;14.10;97.80;;;;;;4921921;29;19931;-85
2022/05/08 09:01:23;;;;;;;;;;;13.70;97.90;;;;;;4890701;29;19927;-85
2022/05/08 09:03:56;;;;;;;;;;;13.70;98.20;;;;;;4921635;29;20014;-86
2022/05/08 09:06:36;;;;;;;;;;;13.90;97.90;;;;;;4910583;29;19942;-85
2022/05/08 09:09:20;;;;;;;;;;;14.10;97.20;;;;;;4919847;29;19927;-86
2022/05/08 09:11:54;;;;;;;;;;;13.50;96.60;;;;;;4946729;23;19933;-86
2022/05/08 09:14:32;;;;;;;;;;;14.20;96.60;;;;;;4879981;29;19927;-86
2022/05/08 09:17:02;;;;;;;;;;;14.30;96.50;;;;;;4909194;29;19936;-86
2022/05/08 09:19:37;;;;;;;;;;;14.40;97.00;;;;;;4880649;29;19931;-86
2022/05/08 09:22:12;;;;;;;;;;;14.60;96.90;;;;;;4881896;29;19934;-86
2022/05/08 09:24:55;;;;;;;;;;;14.60;96.50;;;;;;4896036;29;19942;-86
2022/05/08 09:27:27;;;;;;;;;;;14.60;96.00;;;;;;4882053;29;19943;-86
2022/05/08 09:30:08;;;;;;;;;;;14.70;96.00;;;;;;4914773;29;19935;-87
2022/05/08 09:32:42;;;;;;;;;;;14.70;95.60;;;;;;4917804;29;19964;-87
2022/05/08 09:35:09;;;;;;;;;;;14.80;96.20;;;;;;4887130;29;19938;-85
2022/05/08 09:37:53;;;;;;;;;;;15.00;96.30;;;;;;4900604;29;19932;-86
2022/05/08 09:40:21;;;;;;;;;;;15.00;95.90;;;;;;4917265;29;19927;-86
2022/05/08 09:42:49;;;;;;;;;;;15.00;95.90;;;;;;4900567;29;19938;-86
2022/05/08 09:45:17;;;;;;;;;;;14.90;96.10;;;;;;4900794;29;19938;-86
2022/05/08 09:47:48;;;;;;;;;;;15.20;95.80;;;;;;4898143;29;20378;-86
2022/05/08 09:50:16;;;;;;;;;;;15.20;95.60;;;;;;4888019;29;19946;-87
2022/05/08 09:52:45;;;;;;;;;;;15.30;95.70;;;;;;4917566;29;19935;-86
2022/05/08 09:55:14;;;;;;;;;;;15.40;94.80;;;;;;4901154;29;19935;-87
2022/05/08 09:57:42;;;;;;;;;;;15.50;94.60;;;;;;4913921;29;19938;-87
2022/05/08 10:00:13;;;;;;;;;;;16.20;95.00;;;;;;4893312;29;19934;-88
2022/05/08 10:02:48;;;;;;;;;;;15.60;94.40;;;;;;4920159;29;20223;-89
2022/05/08 10:05:18;;;;;;;;;;;15.70;94.10;;;;;;4902624;29;19943;-86
2022/05/08 10:07:45;;;;;;;;;;;15.60;94.50;;;;;;4901425;29;19935;-86
2022/05/08 10:15:49;;;;;;;;;;;16.10;93.60;;;;;;4920034;29;19951;-89
2022/05/08 10:18:28;;;;;;;;;;;16.20;93.30;;;;;;4890780;29;19952;-89
2022/05/08 10:21:03;;;;;;;;;;;16.40;92.60;;;;;;4891486;29;19927;-89
2022/05/08 10:23:37;;;;;;;;;;;16.60;92.40;;;;;;4901941;29;19928;-89
2022/05/08 10:26:15;;;;;;;;;;;16.90;92.20;;;;;;4902749;29;19931;-90
2022/05/08 10:29:14;;;;;;;;;;;16.60;92.40;;;;;;4908015;29;19935;-87
2022/05/08 10:31:42;;;;;;;;;;;16.70;91.60;;;;;;4935347;29;19938;-87
2022/05/08 10:34:12;;;;;;;;;;;16.70;92.20;;;;;;4927096;29;19934;-86
2022/05/08 10:37:00;;;;;;;;;;;16.90;92.60;;;;;;4895712;29;19931;-91
2022/05/08 10:39:46;;;;;;;;;;;17.10;91.70;;;;;;4912665;29;20306;-91
2022/05/08 10:42:21;;;;;;;;;;;17.20;91.20;;;;;;4928479;29;19935;-89
2022/05/08 10:44:50;;;;;;;;;;;17.30;91.00;;;;;;4892273;29;19937;-88
2022/05/08 10:47:42;;;;;;;;;;;17.40;90.70;;;;;;4906410;29;20167;-87
2022/05/08 10:50:12;;;;;;;;;;;17.40;90.40;;;;;;4907905;29;19927;-91
2022/05/08 10:52:46;;;;;;;;;;;17.50;91.00;;;;;;4551909;29;10000456;-89
2022/05/08 10:55:15;;;;;;;;;;;17.60;91.60;;;;;;4920987;29;19931;-88
2022/05/08 10:57:46;;;;;;;;;;;17.80;91.10;;;;;;4906745;29;20386;-88
2022/05/08 11:00:19;;;;;;;;;;;17.90;90.70;;;;;;4919492;29;19931;-88
2022/05/08 11:02:50;;;;;;;;;;;18.00;91.00;;;;;;4922349;29;19935;-89
2022/05/08 11:05:28;;;;;;;;;;;18.10;90.80;;;;;;4926426;29;19935;-87
2022/05/08 11:07:57;;;;;;;;;;;18.20;90.90;;;;;;4891242;29;19938;-89
2022/05/08 11:10:25;;;;;;;;;;;18.30;90.70;;;;;;4904313;29;19927;-90
2022/05/08 11:13:04;;;;;;;;;;;18.10;90.90;;;;;;4919666;29;20398;-90
2022/05/08 11:15:33;;;;;;;;;;;18.20;90.70;;;;;;4886055;29;19936;-91
2022/05/08 11:18:07;;;;;;;;;;;18.20;90.50;;;;;;4901695;29;19927;-89
2022/05/08 11:20:36;;;;;;;;;;;18.40;90.60;;;;;;4919776;29;20511;-91
2022/05/08 11:23:05;;;;;;;;;;;18.70;90.10;;;;;;4883904;29;19934;-89
2022/05/08 11:25:33;;;;;;;;;;;18.70;88.80;;;;;;4913219;29;19927;-86
2022/05/08 11:28:31;;;;;;;;;;;18.70;89.50;;;;;;4890663;29;19931;-88
2022/05/08 11:31:11;;;;;;;;;;;18.80;88.50;;;;;;4913996;29;20090;-87
2022/05/08 11:36:30;;;;;;;;;;;18.80;87.30;;;;;;4895980;29;19942;-89
2022/05/08 11:39:03;;;;;;;;;;;18.80;87.30;;;;;;4918015;29;20382;-88
2022/05/08 11:41:38;;;;;;;;;;;18.80;88.70;;;;;;4890749;29;19942;-88
2022/05/08 11:44:13;;;;;;;;;;;18.70;87.70;;;;;;4917441;29;19935;-87
2022/05/08 11:46:52;;;;;;;;;;;18.70;87.20;;;;;;4909926;29;19942;-89
2022/05/08 11:49:27;;;;;;;;;;;18.80;86.90;;;;;;4890469;29;20006;-89
2022/05/08 11:51:56;;;;;;;;;;;18.90;86.70;;;;;;4909360;29;19927;-87
2022/05/08 11:54:30;;;;;;;;;;;19.00;86.90;;;;;;4901314;29;19927;-87
2022/05/08 11:57:14;;;;;;;;;;;19.20;87.30;;;;;;4889314;29;19938;-88
2022/05/08 12:00:06;;;;;;;;;;;19.30;86.20;;;;;;4880114;29;19927;-90
2022/05/08 12:02:47;;;;;;;;;;;19.40;84.90;;;;;;4895074;29;20418;-89
2022/05/08 12:08:35;;;;;;;;;;;19.60;86.00;;;;;;4864412;29;19927;-87
2022/05/08 12:11:03;;;;;;;;;;;19.60;87.10;;;;;;4878274;29;19934;-87
2022/05/08 12:13:34;;;;;;;;;;;19.60;85.90;;;;;;4895027;29;19951;-89
2022/05/08 12:16:19;;;;;;;;;;;19.70;85.10;;;;;;4912113;29;19935;-90
2022/05/08 12:19:08;;;;;;;;;;;19.80;85.20;;;;;;4885164;29;19935;-89
2022/05/08 12:21:37;;;;;;;;;;;19.80;85.10;;;;;;4910548;29;19923;-86
2022/05/08 12:24:13;;;;;;;;;;;19.90;85.10;;;;;;4879546;29;19942;-87
2022/05/08 12:26:42;;;;;;;;;;;20.00;83.50;;;;;;4925783;29;19950;-85
2022/05/08 12:29:20;;;;;;;;;;;20.00;82.80;;;;;;4895155;29;19928;-88
2022/05/08 12:31:51;;;;;;;;;;;20.10;84.50;;;;;;4878380;29;19933;-85
2022/05/08 12:34:19;;;;;;;;;;;20.10;82.40;;;;;;4894764;29;20299;-87
2022/05/08 12:36:48;;;;;;;;;;;20.20;84.10;;;;;;4894217;29;19957;-87
2022/05/08 12:39:17;;;;;;;;;;;20.10;84.20;;;;;;4892983;29;19927;-88
2022/05/08 12:41:45;;;;;;;;;;;20.00;84.40;;;;;;4892818;29;19946;-87
2022/05/08 12:44:15;;;;;;;;;;;20.00;84.40;;;;;;4895594;29;19953;-87
2022/05/08 12:46:42;;;;;;;;;;;19.80;84.50;;;;;;4880960;29;19931;-88
2022/05/08 12:49:13;;;;;;;;;;;19.80;86.10;;;;;;4894199;29;19931;-86
2022/05/08 12:51:45;;;;;;;;;;;19.90;85.70;;;;;;4892629;29;19927;-84
2022/05/08 12:54:13;;;;;;;;;;;19.90;85.50;;;;;;4927757;29;20362;-88
2022/05/08 12:56:40;;;;;;;;;;;20.00;85.70;;;;;;4895653;29;19943;-87
2022/05/08 13:01:55;;;;;;;;;;;20.20;83.30;;;;;;4881195;29;19927;-87
2022/05/08 13:04:25;;;;;;;;;;;20.10;84.00;;;;;;4899276;29;19932;-87
2022/05/08 13:06:52;;;;;;;;;;;20.00;84.40;;;;;;4915957;29;19934;-89
2022/05/08 13:09:22;;;;;;;;;;;20.10;83.40;;;;;;4898111;29;20362;-88
2022/05/08 13:11:50;;;;;;;;;;;20.30;84.00;;;;;;4912170;29;20280;-87
2022/05/08 13:14:43;;;;;;;;;;;20.50;83.70;;;;;;4901793;29;19938;-87
2022/05/08 13:17:31;;;;;;;;;;;20.80;83.00;;;;;;4879083;29;19938;-86
2022/05/08 13:20:05;;;;;;;;;;;20.70;83.30;;;;;;4909829;29;19931;-88
2022/05/08 13:22:33;;;;;;;;;;;20.50;82.80;;;;;;4890158;29;19962;-86
2022/05/08 13:25:01;;;;;;;;;;;20.50;84.30;;;;;;4910727;29;20378;-85
2022/05/08 13:27:32;;;;;;;;;;;20.50;82.90;;;;;;4899611;29;19934;-86
2022/05/08 13:30:04;;;;;;;;;;;20.60;82.60;;;;;;4888009;29;19927;-85
2022/05/08 13:32:36;;;;;;;;;;;20.70;81.00;;;;;;4909173;29;19938;-86
2022/05/08 13:35:05;;;;;;;;;;;20.90;80.90;;;;;;4904691;29;19938;-88
2022/05/08 13:37:34;;;;;;;;;;;21.20;81.20;;;;;;4876150;29;20302;-88
2022/05/08 13:40:26;;;;;;;;;;;21.40;80.80;;;;;;4937120;23;19930;-87
2022/05/08 13:43:12;;;;;;;;;;;21.60;79.60;;;;;;4929558;28;19934;-92
2022/05/08 13:45:43;;;;;;;;;;;21.90;79.50;;;;;;4932015;29;19927;-86
2022/05/08 13:48:13;;;;;;;;;;;21.80;78.60;;;;;;4919403;28;19938;-86
2022/05/08 13:50:43;;;;;;;;;;;22.10;77.60;;;;;;4909614;28;19930;-89
2022/05/08 13:53:36;;;;;;;;;;;22.20;77.30;;;;;;4946398;28;19930;-89
2022/05/08 13:56:05;;;;;;;;;;;22.30;77.70;;;;;;4942876;29;19922;-86
2022/05/08 13:58:32;;;;;;;;;;;22.40;76.40;;;;;;4950820;29;19934;-88
2022/05/08 14:01:09;;;;;;;;;;;22.20;74.80;;;;;;4904817;29;19934;-86
2022/05/08 14:03:41;;;;;;;;;;;22.10;75.40;;;;;;4937354;29;19933;-88
2022/05/08 14:06:21;;;;;;;;;;;22.20;74.30;;;;;;4923345;29;19926;-86
2022/05/08 14:09:25;;;;;;;;;;;22.30;76.10;;;;;;4904588;29;19926;-87
2022/05/08 14:15:00;;;;;;;;;;;22.70;73.80;;;;;;4952187;28;19941;-86
2022/05/08 14:17:30;;;;;;;;;;;22.90;73.70;;;;;;4942587;28;19934;-86
2022/05/08 14:20:04;;;;;;;;;;;23.00;71.60;;;;;;4929333;29;19930;-87
2022/05/08 14:22:42;;;;;;;;;;;23.30;71.00;;;;;;4937751;29;19960;-85
2022/05/08 14:25:14;;;;;;;;;;;23.50;71.30;;;;;;4912951;29;19927;-86
2022/05/08 14:27:45;;;;;;;;;;;23.70;70.10;;;;;;4952924;28;19942;-85
2022/05/08 14:30:13;;;;;;;;;;;23.90;70.70;;;;;;4923474;29;19927;-87
2022/05/08 14:38:21;;;;;;;;;;;25.10;71.00;;;;;;4923004;29;19937;-86
2022/05/08 14:41:01;;;;;;;;;;;24.40;69.30;;;;;;4910620;28;20048;-85
2022/05/08 14:43:34;;;;;;;;;;;24.30;69.00;;;;;;4922879;29;19937;-89
2022/05/08 14:46:03;;;;;;;;;;;24.30;69.70;;;;;;4923218;29;19934;-87
2022/05/08 14:48:34;;;;;;;;;;;24.10;69.60;;;;;;4925271;29;19937;-86
2022/05/08 14:51:01;;;;;;;;;;;23.90;68.80;;;;;;4614814;28;9999886;-86
2022/05/08 14:53:30;;;;;;;;;;;24.00;67.70;;;;;;4941739;29;19930;-86
2022/05/08 14:55:58;;;;;;;;;;;24.00;67.80;;;;;;4956310;29;20440;-87
2022/05/08 14:58:25;;;;;;;;;;;24.10;67.70;;;;;;4937545;29;19937;-87
2022/05/08 15:00:54;;;;;;;;;;;25.20;68.00;;;;;;4937405;29;19931;-86
2022/05/08 15:03:22;;;;;;;;;;;24.60;67.30;;;;;;4920525;29;19934;-88
2022/05/08 15:05:53;;;;;;;;;;;24.90;65.50;;;;;;4937580;29;19941;-87
2022/05/08 15:12:13;;;;;;;;;;;25.30;66.20;;;;;;5041723;23;19934;-86
2022/05/08 15:15:06;;;;;;;;;;;25.50;65.70;;;;;;4973567;28;19930;-87
2022/05/08 15:18:47;;;;;;;;;;;25.50;65.30;;;;;;4958027;28;19941;-88
2022/05/08 15:20:23;;;;;;;;;;;25.40;64.90;;;;;;4972730;28;19953;-87
2022/05/08 15:22:58;;;;;;;;;;;25.40;63.50;;;;;;4924928;28;19937;-86
2022/05/08 15:25:26;;;;;;;;;;;25.60;64.30;;;;;;4937491;28;19957;-87
2022/05/08 15:27:54;;;;;;;;;;;25.70;63.30;;;;;;4952869;28;19937;-86
2022/05/08 15:30:23;;;;;;;;;;;25.90;64.30;;;;;;4929576;28;19952;-88
2022/05/08 15:32:53;;;;;;;;;;;26.00;63.30;;;;;;4964034;28;19941;-88
2022/05/08 15:35:22;;;;;;;;;;;26.10;63.90;;;;;;4929162;28;20373;-87
2022/05/08 15:37:52;;;;;;;;;;;26.30;63.20;;;;;;4975423;28;19926;-91
2022/05/08 15:40:21;;;;;;;;;;;26.20;63.50;;;;;;4942099;28;19930;-87
2022/05/08 15:42:52;;;;;;;;;;;26.00;63.20;;;;;;4950708;28;20530;-88
2022/05/08 15:45:22;;;;;;;;;;;26.00;63.30;;;;;;4928534;28;19954;-88